createdAt,value
2022-09-07T04:03:10.315Z,15.10
2022-09-07T04:05:38.394Z,15.10
2022-09-07T04:08:06.501Z,15.10
2022-09-07T04:10:39.232Z,15.10
2022-09-07T04:13:08.119Z,15.00
2022-09-07T04:15:37.181Z,15.00
2022-09-07T04:18:05.612Z,15.00
2022-09-07T04:20:35.144Z,14.90
2022-09-07T04:23:03.202Z,15.00
2022-09-07T04:25:31.317Z,15.00
2022-09-07T04:27:59.404Z,14.90
2022-09-07T04:30:27.614Z,15.00
2022-09-07T04:32:55.721Z,15.00
2022-09-07T04:35:23.896Z,15.00
2022-09-07T04:37:53.321Z,15.00
2022-09-07T04:40:21.429Z,15.00
2022-09-07T04:42:49.811Z,15.00
2022-09-07T04:45:18.038Z,15.00
2022-09-07T04:47:48.853Z,15.00
2022-09-07T04:50:17.982Z,15.00
2022-09-07T04:52:47.019Z,15.10
2022-09-07T04:55:16.815Z,15.10
2022-09-07T04:57:44.817Z,15.20
2022-09-07T05:00:14.468Z,15.20
2022-09-07T05:02:42.688Z,15.30
2022-09-07T05:05:11.326Z,15.40
2022-09-07T05:07:39.444Z,15.50
2022-09-07T05:10:08.175Z,15.50
2022-09-07T05:12:37.755Z,15.60
2022-09-07T05:15:07.297Z,15.70
2022-09-07T05:17:35.363Z,15.80
2022-09-07T05:20:04.260Z,15.80
2022-09-07T05:22:33.107Z,15.90
2022-09-07T05:25:01.210Z,16.00
2022-09-07T05:27:29.625Z,16.00
2022-09-07T05:32:28.060Z,16.20
2022-09-07T05:34:56.129Z,16.30
2022-09-07T05:37:24.180Z,16.30
2022-09-07T05:39:55.095Z,16.50
2022-09-07T05:42:23.652Z,16.60
2022-09-07T05:44:51.729Z,16.60
2022-09-07T05:47:21.187Z,16.80
2022-09-07T05:49:51.034Z,16.90
2022-09-07T05:52:20.963Z,16.90
2022-09-07T05:54:49.831Z,17.00
2022-09-07T05:57:17.823Z,17.10
2022-09-07T05:59:45.883Z,17.20
2022-09-07T06:02:15.908Z,17.20
2022-09-07T06:04:45.399Z,17.40
2022-09-07T06:07:22.781Z,17.50
2022-09-07T06:12:39.814Z,17.60
2022-09-07T06:15:10.059Z,17.70
2022-09-07T06:17:38.121Z,17.80
2022-09-07T06:20:09.379Z,17.90
2022-09-07T06:22:38.130Z,18.00
2022-09-07T06:25:07.084Z,18.20
2022-09-07T06:27:35.472Z,18.30
2022-09-07T06:30:03.596Z,18.50
2022-09-07T06:32:47.100Z,18.70
2022-09-07T06:35:16.861Z,18.90
2022-09-07T06:37:45.517Z,19.10
2022-09-07T06:40:13.837Z,19.20
2022-09-07T06:42:42.644Z,19.40
2022-09-07T06:45:11.891Z,19.50
2022-09-07T06:47:40.805Z,19.60
2022-09-07T06:50:10.910Z,19.70
2022-09-07T06:55:29.168Z,19.60
2022-09-07T06:57:57.393Z,19.60
2022-09-07T07:00:25.517Z,19.70
2022-09-07T07:02:53.631Z,19.70
2022-09-07T07:05:21.746Z,19.70
2022-09-07T07:07:51.193Z,19.80
2022-09-07T07:10:24.273Z,19.80
2022-09-07T07:12:56.703Z,19.80
2022-09-07T07:15:27.451Z,19.90
2022-09-07T07:18:00.309Z,20.00
2022-09-07T07:20:35.661Z,20.00
2022-09-07T07:23:05.810Z,20.10
2022-09-07T07:25:35.745Z,20.20
2022-09-07T07:30:57.231Z,20.50
2022-09-07T07:33:25.904Z,20.50
2022-09-07T07:35:54.200Z,20.60
2022-09-07T07:44:00.869Z,20.90
2022-09-07T07:46:32.375Z,21.10
2022-09-07T07:49:00.651Z,21.20
2022-09-07T07:51:28.876Z,21.40
2022-09-07T07:53:58.795Z,21.60
2022-09-07T07:56:27.325Z,21.70
2022-09-07T07:58:55.394Z,21.90
2022-09-07T08:01:23.443Z,21.90
2022-09-07T08:03:52.004Z,22.00
2022-09-07T08:06:22.276Z,22.00
2022-09-07T08:08:50.446Z,22.00
2022-09-07T08:11:22.001Z,22.00
2022-09-07T08:13:52.086Z,22.10
2022-09-07T08:16:20.583Z,22.10
2022-09-07T08:18:50.347Z,22.20
2022-09-07T08:21:18.287Z,22.30
2022-09-07T08:23:46.452Z,22.30
2022-09-07T08:26:14.513Z,22.40
2022-09-07T08:28:46.198Z,22.50
2022-09-07T08:31:17.623Z,22.60
2022-09-07T08:33:46.517Z,22.60
2022-09-07T08:36:17.573Z,22.70
2022-09-07T08:38:46.076Z,22.70
2022-09-07T08:42:01.644Z,22.90
2022-09-07T08:44:35.853Z,23.00
2022-09-07T08:47:16.021Z,23.20
2022-09-07T08:49:50.660Z,23.30
2022-09-07T08:52:24.676Z,23.50
2022-09-07T08:55:02.583Z,23.60
2022-09-07T08:57:36.733Z,23.80
2022-09-07T09:00:13.802Z,23.90
2022-09-07T09:02:44.327Z,24.10
2022-09-07T09:05:28.162Z,24.20
2022-09-07T09:08:15.414Z,24.30
2022-09-07T09:10:59.066Z,24.40
2022-09-07T09:13:45.313Z,24.50
2022-09-07T09:16:21.580Z,24.60
2022-09-07T09:19:13.848Z,24.70
2022-09-07T09:21:42.698Z,24.80
2022-09-07T09:24:17.371Z,24.90
2022-09-07T09:26:53.393Z,25.10
2022-09-07T09:29:24.104Z,25.10
2022-09-07T09:31:53.623Z,25.20
2022-09-07T09:34:25.456Z,25.40
2022-09-07T09:36:57.824Z,25.60
2022-09-07T09:39:29.907Z,25.70
2022-09-07T09:42:03.161Z,25.90
2022-09-07T09:44:37.506Z,26.00
2022-09-07T09:49:59.373Z,26.00
2022-09-07T09:52:38.438Z,26.10
2022-09-07T09:55:35.902Z,26.20
2022-09-07T10:06:25.780Z,27.40
2022-09-07T10:08:58.664Z,27.80
2022-09-07T10:14:43.264Z,28.20
2022-09-07T10:17:24.521Z,28.40
2022-09-07T10:19:54.193Z,28.50
2022-09-07T10:22:32.169Z,28.80
2022-09-07T10:25:01.849Z,29.20
2022-09-07T10:27:34.245Z,29.50
2022-09-07T10:30:06.840Z,29.80
2022-09-07T10:32:56.893Z,30.10
2022-09-07T10:35:31.600Z,30.30
2022-09-07T10:38:15.946Z,30.50
2022-09-07T10:40:48.601Z,30.70
2022-09-07T10:43:29.251Z,30.60
2022-09-07T10:46:56.241Z,30.50
2022-09-07T10:49:21.396Z,30.40
2022-09-07T10:52:05.926Z,30.20
2022-09-07T10:54:48.275Z,30.00
2022-09-07T10:57:39.040Z,30.00
2022-09-07T11:00:12.789Z,30.00
2022-09-07T11:03:26.476Z,30.10
2022-09-07T11:06:19.319Z,30.10
2022-09-07T11:09:34.358Z,30.00
2022-09-07T11:12:08.880Z,30.00
2022-09-07T11:14:43.765Z,30.00
2022-09-07T11:17:19.452Z,30.00
2022-09-07T11:19:55.656Z,29.90
2022-09-07T11:22:35.689Z,30.00
2022-09-07T11:25:35.596Z,29.90
2022-09-07T11:28:13.955Z,30.00
2022-09-07T11:30:49.873Z,30.10
2022-09-07T11:33:25.459Z,30.40
2022-09-07T11:36:02.307Z,30.70
2022-09-07T11:38:36.166Z,31.00
2022-09-07T11:41:23.532Z,31.20
2022-09-07T11:44:01.783Z,31.30
2022-09-07T11:46:38.513Z,31.40
2022-09-07T11:49:13.617Z,31.60
2022-09-07T11:51:53.482Z,31.70
2022-09-07T11:54:42.493Z,31.80
2022-09-07T11:57:40.441Z,31.90
2022-09-07T12:00:17.324Z,31.50
2022-09-07T12:03:23.905Z,30.80
2022-09-07T12:06:25.924Z,30.30
2022-09-07T12:09:12.591Z,29.70
2022-09-07T12:12:25.507Z,29.50
2022-09-07T12:15:10.568Z,29.40
2022-09-07T12:18:02.876Z,29.60
2022-09-07T12:20:41.673Z,29.90
2022-09-07T12:23:28.265Z,30.20
2022-09-07T12:26:50.915Z,30.60
2022-09-07T12:29:27.371Z,31.10
2022-09-07T12:31:59.509Z,31.60
2022-09-07T12:34:57.853Z,32.00
2022-09-07T12:37:44.062Z,32.20
2022-09-07T12:41:01.628Z,32.30
2022-09-07T12:43:53.796Z,31.60
2022-09-07T12:46:47.262Z,31.00
2022-09-07T12:50:09.929Z,31.00
2022-09-07T12:53:26.275Z,31.10
2022-09-07T12:56:24.262Z,31.20
2022-09-07T12:59:19.565Z,31.20
2022-09-07T13:02:06.034Z,31.00
2022-09-07T13:04:59.184Z,31.00
2022-09-07T13:08:15.145Z,31.10
2022-09-07T13:10:44.916Z,31.20
2022-09-07T13:17:16.078Z,31.50
2022-09-07T13:20:17.783Z,31.60
2022-09-07T13:23:25.665Z,31.80
2022-09-07T13:26:05.068Z,31.90
2022-09-07T13:28:55.932Z,31.80
2022-09-07T13:31:49.441Z,31.80
2022-09-07T13:34:50.926Z,31.60
2022-09-07T13:37:24.688Z,31.50
2022-09-07T13:39:56.352Z,31.40
2022-09-07T13:42:29.706Z,31.30
2022-09-07T13:45:00.430Z,31.20
2022-09-07T13:47:54.212Z,31.20
2022-09-07T13:50:32.319Z,31.20
2022-09-07T13:53:31.378Z,31.30
2022-09-07T13:56:19.883Z,32.20
2022-09-07T13:58:52.407Z,33.60
2022-09-07T14:01:23.313Z,34.90
2022-09-07T14:03:55.559Z,35.30
2022-09-07T14:06:36.077Z,36.00
2022-09-07T14:09:15.411Z,38.20
2022-09-07T14:11:47.832Z,40.80
2022-09-07T14:14:23.300Z,43.20
2022-09-07T14:17:02.440Z,44.90
2022-09-07T14:19:39.210Z,44.80
2022-09-07T14:22:13.416Z,43.90
2022-09-07T14:24:49.497Z,44.30
2022-09-07T14:27:23.624Z,45.20
2022-09-07T14:29:52.048Z,45.80
2022-09-07T14:32:25.369Z,45.40
2022-09-07T14:34:53.497Z,45.00
2022-09-07T14:37:23.773Z,44.30
2022-09-07T14:39:54.756Z,43.30
2022-09-07T14:42:25.471Z,42.10
2022-09-07T14:45:18.603Z,39.90
2022-09-07T14:47:49.373Z,38.50
2022-09-07T14:50:21.040Z,37.60
2022-09-07T14:55:45.506Z,36.70
2022-09-07T14:58:25.174Z,36.80
2022-09-07T15:04:00.758Z,36.40
2022-09-07T15:09:36.090Z,35.50
2022-09-07T15:12:19.625Z,35.10
2022-09-07T15:14:48.689Z,35.40
2022-09-07T15:17:42.932Z,37.20
2022-09-07T15:20:38.863Z,39.20
2022-09-07T15:23:12.141Z,41.40
2022-09-07T15:25:45.430Z,42.90
2022-09-07T15:34:09.797Z,46.70
2022-09-07T15:36:40.814Z,47.00
2022-09-07T15:39:17.066Z,47.40
2022-09-07T15:41:45.545Z,47.50
2022-09-07T15:44:15.997Z,47.50
2022-09-07T15:47:43.284Z,47.50
2022-09-07T15:49:33.266Z,46.40
2022-09-07T15:52:08.426Z,44.80
2022-09-07T15:54:39.543Z,43.20
2022-09-07T15:59:57.383Z,41.70
2022-09-07T16:05:13.609Z,40.70
2022-09-07T16:10:31.551Z,37.90
2022-09-07T16:13:01.137Z,36.40
2022-09-07T16:15:31.828Z,35.40
2022-09-07T16:17:59.871Z,34.60
2022-09-07T16:20:31.960Z,33.80
2022-09-07T16:23:17.023Z,33.20
2022-09-07T16:25:57.749Z,32.40
2022-09-07T16:28:27.152Z,31.80
2022-09-07T16:30:56.857Z,31.10
2022-09-07T16:33:31.598Z,30.60
2022-09-07T16:36:09.136Z,30.20
2022-09-07T16:38:45.555Z,29.70
2022-09-07T16:41:16.059Z,29.20
2022-09-07T16:43:44.481Z,28.90
2022-09-07T16:46:16.986Z,28.50
2022-09-07T16:48:45.345Z,28.30
2022-09-07T16:51:15.520Z,28.10
2022-09-07T16:53:44.091Z,28.00
2022-09-07T16:56:16.934Z,27.90
2022-09-07T16:58:47.180Z,27.80
2022-09-07T17:01:19.453Z,27.70
2022-09-07T17:03:49.492Z,27.50
2022-09-07T17:06:21.852Z,27.30
2022-09-07T17:08:50.131Z,27.10
2022-09-07T17:11:20.321Z,27.00
2022-09-07T17:13:49.173Z,26.80
2022-09-07T17:16:21.046Z,26.70
2022-09-07T17:21:41.812Z,26.30
2022-09-07T17:24:12.152Z,25.80
2022-09-07T17:26:42.235Z,25.00
2022-09-07T17:29:13.059Z,24.50
2022-09-07T17:34:31.777Z,21.70
2022-09-07T17:37:01.204Z,20.80
2022-09-07T17:39:29.586Z,20.20
2022-09-07T17:41:58.200Z,19.80
2022-09-07T17:44:30.698Z,19.50
2022-09-07T17:47:02.700Z,19.30
2022-09-07T17:49:30.861Z,19.20
2022-09-07T17:52:00.900Z,19.10
2022-09-07T17:54:29.369Z,19.00
2022-09-07T17:56:57.583Z,18.90
2022-09-07T18:02:16.486Z,18.80
2022-09-07T18:04:44.647Z,18.70
2022-09-07T18:07:13.000Z,18.60
2022-09-07T18:09:41.001Z,18.60
2022-09-07T18:12:09.097Z,18.60
2022-09-07T18:14:37.202Z,18.70
2022-09-07T18:17:05.991Z,18.70
2022-09-07T18:19:36.306Z,18.70
2022-09-07T18:22:04.758Z,18.70
2022-09-07T18:24:33.263Z,18.70
2022-09-07T18:27:05.576Z,18.80
2022-09-07T18:29:34.495Z,18.80
2022-09-07T18:32:08.214Z,18.80
2022-09-07T18:34:41.257Z,18.80
2022-09-07T18:37:11.925Z,18.90
2022-09-07T18:39:40.871Z,18.90
2022-09-07T18:42:09.943Z,19.00
2022-09-07T18:47:29.805Z,19.00
2022-09-07T18:49:59.579Z,19.00
2022-09-07T18:55:17.593Z,19.10
2022-09-07T18:57:45.799Z,19.20
2022-09-07T19:00:14.878Z,19.20
2022-09-07T19:02:43.175Z,19.20
2022-09-07T19:08:03.355Z,19.30
2022-09-07T19:10:35.740Z,19.30
2022-09-07T19:13:04.211Z,19.30
2022-09-07T19:15:37.378Z,19.40
2022-09-07T19:18:08.205Z,19.40
2022-09-07T19:20:37.880Z,19.40
2022-09-07T19:23:06.712Z,19.30
2022-09-07T19:25:34.804Z,19.30
2022-09-07T19:28:02.930Z,19.30
2022-09-07T19:30:31.170Z,19.30
2022-09-07T19:33:03.532Z,19.30
2022-09-07T19:35:37.603Z,19.30
2022-09-07T19:38:06.073Z,19.20
2022-09-07T19:40:34.048Z,19.30
2022-09-07T19:43:01.997Z,19.30
2022-09-07T19:45:30.287Z,19.30
2022-09-07T19:47:58.937Z,19.30
2022-09-07T19:50:27.007Z,19.30
2022-09-07T19:52:56.308Z,19.30
2022-09-07T19:55:24.552Z,19.30
2022-09-07T19:57:52.524Z,19.30
2022-09-07T20:00:20.928Z,19.30
2022-09-07T20:02:50.309Z,19.20
2022-09-07T20:05:19.367Z,19.20
2022-09-07T20:07:47.302Z,19.20
2022-09-07T20:10:17.598Z,19.20
2022-09-07T20:12:45.596Z,19.10
2022-09-07T20:15:13.962Z,19.10
2022-09-07T20:17:41.969Z,19.10
2022-09-07T20:20:11.027Z,19.00
2022-09-07T20:22:39.037Z,19.00
2022-09-07T20:25:12.582Z,19.00
2022-09-07T20:27:42.715Z,18.90
2022-09-07T20:30:12.407Z,18.90
2022-09-07T20:32:40.411Z,18.80
2022-09-07T20:35:09.213Z,18.80
2022-09-07T20:37:37.314Z,18.70
2022-09-07T20:40:07.466Z,18.70
2022-09-07T20:42:35.525Z,18.60
2022-09-07T20:45:05.945Z,18.60
2022-09-07T20:47:34.332Z,18.50
2022-09-07T20:50:02.268Z,18.50
2022-09-07T20:52:30.432Z,18.50
2022-09-07T20:54:58.388Z,18.40
2022-09-07T20:57:26.276Z,18.50
2022-09-07T20:59:54.273Z,18.40
